createdAt,value
2018-07-26T00:00:43.159Z,25.90
2018-07-26T00:03:11.432Z,25.90
2018-07-26T00:05:39.643Z,25.90
2018-07-26T00:08:08.111Z,25.90
2018-07-26T00:10:36.415Z,25.90
2018-07-26T00:13:04.753Z,25.80
2018-07-26T00:15:33.039Z,25.80
2018-07-26T00:18:01.331Z,25.80
2018-07-26T00:20:29.702Z,25.80
2018-07-26T00:22:57.946Z,25.80
2018-07-26T00:25:26.209Z,25.80
2018-07-26T00:27:54.503Z,25.60
2018-07-26T00:30:22.735Z,25.60
2018-07-26T00:35:18.987Z,25.70
2018-07-26T00:40:15.280Z,25.60
2018-07-26T00:42:43.537Z,25.70
2018-07-26T00:45:11.819Z,25.60
2018-07-26T00:47:40.061Z,25.60
2018-07-26T00:50:08.325Z,25.60
2018-07-26T00:55:04.849Z,25.40
2018-07-26T00:57:33.096Z,25.30
2018-07-26T01:00:01.311Z,25.20
2018-07-26T01:02:29.559Z,25.30
2018-07-26T01:04:57.866Z,25.40
2018-07-26T01:07:26.147Z,25.30
2018-07-26T01:09:54.446Z,25.30
2018-07-26T01:12:22.715Z,25.40
2018-07-26T01:17:19.103Z,25.30
2018-07-26T01:19:47.415Z,25.20
2018-07-26T01:22:15.717Z,25.10
2018-07-26T01:24:43.972Z,25.10
2018-07-26T01:27:12.271Z,25.00
2018-07-26T01:29:40.536Z,25.00
2018-07-26T01:32:08.783Z,24.80
2018-07-26T01:34:37.048Z,24.80
2018-07-26T01:37:05.728Z,24.70
2018-07-26T01:39:33.946Z,24.90
2018-07-26T01:42:02.229Z,24.90
2018-07-26T01:46:58.563Z,24.80
2018-07-26T01:49:26.839Z,24.70
2018-07-26T01:51:55.084Z,24.60
2018-07-26T01:54:23.344Z,24.50
2018-07-26T01:56:51.620Z,24.40
2018-07-26T01:59:19.902Z,24.30
2018-07-26T02:01:48.303Z,24.50
2018-07-26T02:04:16.492Z,24.60
2018-07-26T02:06:44.725Z,24.60
2018-07-26T02:09:13.031Z,24.50
2018-07-26T02:11:41.304Z,24.60
2018-07-26T02:14:14.957Z,24.70
2018-07-26T02:16:43.292Z,24.60
2018-07-26T02:19:11.580Z,24.60
2018-07-26T02:21:39.849Z,24.40
2018-07-26T02:24:09.063Z,24.30
2018-07-26T02:26:37.309Z,24.20
2018-07-26T02:29:05.630Z,24.10
2018-07-26T02:31:34.661Z,23.90
2018-07-26T02:34:02.914Z,24.00
2018-07-26T02:36:31.189Z,23.90
2018-07-26T02:38:59.488Z,24.00
2018-07-26T02:41:27.863Z,24.00
2018-07-26T02:43:56.142Z,23.90
2018-07-26T02:46:24.446Z,23.90
2018-07-26T02:48:52.720Z,24.00
2018-07-26T02:51:20.989Z,24.10
2018-07-26T02:53:49.271Z,24.20
2018-07-26T02:56:18.036Z,24.30
2018-07-26T02:58:46.318Z,24.00
2018-07-26T03:01:14.590Z,24.10
2018-07-26T03:03:42.793Z,24.00
2018-07-26T03:06:11.063Z,23.90
2018-07-26T03:08:40.334Z,23.90
2018-07-26T03:11:08.630Z,23.80
2018-07-26T03:13:36.892Z,23.80
2018-07-26T03:16:05.176Z,23.90
2018-07-26T03:18:33.385Z,23.90
2018-07-26T03:23:29.699Z,23.90
2018-07-26T03:25:57.954Z,23.90
2018-07-26T03:28:26.182Z,23.80
2018-07-26T03:33:22.864Z,23.70
2018-07-26T03:35:51.149Z,23.70
2018-07-26T03:38:19.420Z,23.60
2018-07-26T03:40:47.659Z,23.70
2018-07-26T03:43:16.619Z,23.60
2018-07-26T03:45:44.922Z,23.60
2018-07-26T03:48:13.184Z,23.60
2018-07-26T03:50:41.453Z,23.50
2018-07-26T03:53:09.786Z,23.60
2018-07-26T03:55:38.103Z,23.70
2018-07-26T03:58:06.632Z,23.60
2018-07-26T04:03:02.869Z,23.60
2018-07-26T04:07:59.174Z,23.60
2018-07-26T04:10:27.425Z,23.70
2018-07-26T04:12:55.732Z,23.60
2018-07-26T04:15:23.979Z,23.70
2018-07-26T04:17:57.819Z,23.70
2018-07-26T04:20:26.077Z,23.60
2018-07-26T04:22:54.331Z,23.50
2018-07-26T04:25:22.671Z,23.50
2018-07-26T04:27:50.947Z,23.30
2018-07-26T04:30:19.225Z,23.30
2018-07-26T04:32:47.479Z,23.40
2018-07-26T04:35:15.816Z,23.50
2018-07-26T04:37:45.063Z,23.60
2018-07-26T04:40:13.293Z,23.70
2018-07-26T04:42:41.544Z,23.80
2018-07-26T04:45:09.832Z,23.80
2018-07-26T04:47:38.163Z,23.80
2018-07-26T04:50:06.476Z,23.70
2018-07-26T04:57:31.367Z,23.60
2018-07-26T04:59:59.734Z,23.70
2018-07-26T05:02:27.991Z,23.70
2018-07-26T05:04:56.561Z,23.70
2018-07-26T05:07:25.636Z,23.80
2018-07-26T05:09:53.938Z,23.70
2018-07-26T05:12:22.208Z,23.70
2018-07-26T05:14:50.471Z,23.70
2018-07-26T05:17:18.744Z,23.80
2018-07-26T05:22:14.943Z,24.00
2018-07-26T05:24:43.594Z,24.00
2018-07-26T05:27:11.839Z,24.10
2018-07-26T05:32:08.137Z,24.20
2018-07-26T05:34:36.598Z,24.00
2018-07-26T05:37:04.873Z,24.20
2018-07-26T05:39:33.137Z,24.20
2018-07-26T05:42:01.412Z,24.20
2018-07-26T05:44:29.708Z,24.30
2018-07-26T05:46:58.042Z,24.40
2018-07-26T05:51:54.302Z,24.70
2018-07-26T05:56:50.584Z,25.00
2018-07-26T05:59:18.855Z,25.20
2018-07-26T06:01:47.155Z,25.30
2018-07-26T06:04:15.415Z,25.40
2018-07-26T06:06:43.659Z,25.60
2018-07-26T06:09:12.496Z,25.70
2018-07-26T06:11:41.283Z,25.80
2018-07-26T06:14:09.578Z,26.10
2018-07-26T06:16:37.865Z,26.30
2018-07-26T06:19:06.845Z,26.40
2018-07-26T06:21:35.138Z,26.50
2018-07-26T06:24:03.424Z,26.80
2018-07-26T06:28:59.826Z,27.00
2018-07-26T06:31:28.072Z,27.20
2018-07-26T06:33:57.268Z,27.40
2018-07-26T06:36:25.599Z,27.50
2018-07-26T06:38:53.864Z,27.70
2018-07-26T06:41:22.176Z,27.80
2018-07-26T06:43:50.439Z,27.90
2018-07-26T06:46:19.032Z,27.90
2018-07-26T06:53:43.423Z,28.20
2018-07-26T06:56:11.633Z,28.50
2018-07-26T06:58:39.958Z,29.00
2018-07-26T07:01:09.069Z,29.60
2018-07-26T07:03:37.419Z,30.00
2018-07-26T07:06:05.668Z,30.40
2018-07-26T07:08:33.927Z,30.90
2018-07-26T07:13:30.268Z,31.60
2018-07-26T07:15:58.585Z,32.00
2018-07-26T07:18:26.923Z,32.30
2018-07-26T07:20:55.172Z,32.50
2018-07-26T07:23:23.558Z,33.00
2018-07-26T07:25:51.865Z,33.60
2018-07-26T07:30:48.242Z,33.90
2018-07-26T07:33:16.609Z,34.30
2018-07-26T07:35:44.804Z,34.40
2018-07-26T07:38:13.008Z,34.70
2018-07-26T07:40:41.538Z,34.70
2018-07-26T07:43:09.777Z,35.30
2018-07-26T07:45:38.042Z,36.00
2018-07-26T07:48:06.371Z,36.20
2018-07-26T07:50:34.683Z,36.20
2018-07-26T07:53:02.988Z,36.30
2018-07-26T07:55:31.279Z,36.30
2018-07-26T07:57:59.552Z,36.60
2018-07-26T08:02:55.829Z,36.80
2018-07-26T08:05:24.213Z,37.00
2018-07-26T08:10:21.239Z,37.40
2018-07-26T08:12:49.561Z,37.60
2018-07-26T08:15:17.877Z,37.70
2018-07-26T08:17:46.244Z,38.00
2018-07-26T08:20:14.536Z,38.00
2018-07-26T08:22:42.792Z,38.50
2018-07-26T08:25:11.679Z,38.80
2018-07-26T08:27:40.359Z,39.10
2018-07-26T08:30:09.950Z,39.20
2018-07-26T08:32:38.291Z,40.00
2018-07-26T08:35:07.713Z,40.20
2018-07-26T08:37:36.042Z,40.20
2018-07-26T08:40:05.092Z,40.50
2018-07-26T08:42:33.387Z,40.50
2018-07-26T08:45:01.674Z,41.10
2018-07-26T08:49:58.310Z,42.40
2018-07-26T08:52:26.629Z,42.80
2018-07-26T08:54:54.881Z,42.30
2018-07-26T08:57:23.104Z,42.50
2018-07-26T08:59:51.354Z,43.10
2018-07-26T09:02:19.715Z,43.90
2018-07-26T09:04:48.029Z,44.30
2018-07-26T09:07:16.713Z,43.60
2018-07-26T09:09:45.231Z,44.10
2018-07-26T09:12:13.567Z,44.20
2018-07-26T09:14:41.852Z,44.60
2018-07-26T09:17:10.101Z,44.90
2018-07-26T09:19:38.360Z,44.70
2018-07-26T09:22:06.568Z,44.70
2018-07-26T09:27:02.975Z,44.40
2018-07-26T09:29:31.252Z,44.80
2018-07-26T09:31:59.600Z,44.70
2018-07-26T09:34:27.850Z,45.00
2018-07-26T09:39:26.008Z,44.90
2018-07-26T09:41:55.534Z,45.70
2018-07-26T09:44:25.333Z,46.00
2018-07-26T09:46:54.813Z,45.60
2018-07-26T09:49:24.567Z,45.90
2018-07-26T09:51:55.386Z,46.00
2018-07-26T09:54:25.129Z,45.70
2018-07-26T09:56:59.754Z,45.60
2018-07-26T09:59:31.277Z,46.40
2018-07-26T10:02:03.548Z,46.90
2018-07-26T10:04:33.274Z,46.30
2018-07-26T10:07:01.716Z,46.70
2018-07-26T10:09:29.984Z,46.70
2018-07-26T10:11:58.593Z,46.70
2018-07-26T10:14:27.242Z,46.90
2018-07-26T10:16:55.562Z,47.50
2018-07-26T10:19:24.265Z,47.40
2018-07-26T10:21:52.562Z,46.90
2018-07-26T10:24:20.861Z,47.30
2018-07-26T10:26:49.226Z,47.50
2018-07-26T10:29:17.503Z,46.90
2018-07-26T10:31:45.783Z,48.20
2018-07-26T10:34:13.993Z,49.20
2018-07-26T10:36:42.262Z,49.50
2018-07-26T10:39:11.950Z,48.60
2018-07-26T10:41:40.365Z,47.20
2018-07-26T10:44:08.878Z,47.90
2018-07-26T10:46:42.231Z,48.60
2018-07-26T10:49:10.648Z,48.70
2018-07-26T10:51:40.469Z,48.80
2018-07-26T10:54:09.164Z,48.60
2018-07-26T10:56:37.712Z,47.10
2018-07-26T10:59:05.960Z,46.30
2018-07-26T11:01:34.328Z,46.40
2018-07-26T11:04:02.582Z,46.40
2018-07-26T11:06:30.919Z,46.20
2018-07-26T11:08:59.220Z,47.30
2018-07-26T11:11:29.313Z,48.00
2018-07-26T11:13:58.866Z,47.20
2018-07-26T11:16:28.039Z,47.30
2018-07-26T11:18:59.975Z,48.60
2018-07-26T11:21:35.949Z,49.70
2018-07-26T11:24:06.399Z,50.20
2018-07-26T11:26:35.609Z,50.10
2018-07-26T11:29:05.626Z,49.90
2018-07-26T11:31:34.395Z,50.20
2018-07-26T11:34:03.252Z,51.20
2018-07-26T11:41:27.846Z,51.00
2018-07-26T11:43:55.979Z,50.50
2018-07-26T11:46:24.345Z,49.80
2018-07-26T11:48:52.682Z,49.10
2018-07-26T11:51:20.924Z,49.30
2018-07-26T11:53:49.238Z,49.70
2018-07-26T11:56:17.514Z,50.70
2018-07-26T11:58:45.789Z,51.30
2018-07-26T12:01:14.026Z,51.70
2018-07-26T12:03:42.623Z,51.80
2018-07-26T12:06:10.925Z,51.90
2018-07-26T12:08:39.263Z,51.70
2018-07-26T12:11:08.002Z,52.10
2018-07-26T12:13:36.263Z,52.40
2018-07-26T12:16:04.508Z,52.10
2018-07-26T12:18:32.866Z,52.10
2018-07-26T12:21:01.222Z,51.70
2018-07-26T12:26:00.254Z,50.20
2018-07-26T12:28:28.584Z,50.30
2018-07-26T12:30:56.872Z,50.70
2018-07-26T12:33:25.183Z,51.10
2018-07-26T12:35:53.475Z,50.50
2018-07-26T12:38:21.622Z,48.90
2018-07-26T12:40:49.952Z,45.90
2018-07-26T12:43:20.594Z,44.40
2018-07-26T12:45:48.946Z,43.50
2018-07-26T12:48:17.249Z,42.80
2018-07-26T12:50:45.479Z,42.40
2018-07-26T12:53:14.399Z,42.50
2018-07-26T12:58:11.422Z,41.90
2018-07-26T13:00:39.794Z,41.30
2018-07-26T13:03:08.170Z,41.00
2018-07-26T13:05:36.570Z,41.00
2018-07-26T13:08:05.054Z,40.30
2018-07-26T13:10:33.288Z,40.50
2018-07-26T13:13:01.527Z,40.10
2018-07-26T13:15:29.760Z,40.30
2018-07-26T13:17:58.060Z,41.30
2018-07-26T13:20:26.319Z,42.40
2018-07-26T13:22:54.615Z,42.90
2018-07-26T13:25:22.854Z,43.00
2018-07-26T13:27:51.164Z,42.20
2018-07-26T13:30:19.425Z,42.10
2018-07-26T13:32:47.698Z,41.60
2018-07-26T13:35:16.114Z,41.40
2018-07-26T13:37:44.405Z,41.20
2018-07-26T13:40:12.763Z,40.80
2018-07-26T13:42:41.048Z,40.40
2018-07-26T13:45:10.111Z,40.10
2018-07-26T13:47:39.640Z,39.90
2018-07-26T13:50:07.889Z,39.70
2018-07-26T13:52:36.300Z,39.60
2018-07-26T13:57:32.579Z,39.40
2018-07-26T14:00:00.936Z,39.70
2018-07-26T14:02:29.258Z,39.90
2018-07-26T14:04:58.554Z,39.90
2018-07-26T14:07:26.902Z,39.80
2018-07-26T14:09:55.219Z,39.90
2018-07-26T14:12:25.928Z,39.60
2018-07-26T14:14:54.326Z,39.80
2018-07-26T14:17:22.641Z,39.90
2018-07-26T14:19:50.919Z,40.10
2018-07-26T14:22:19.199Z,40.20
2018-07-26T14:24:47.474Z,40.00
2018-07-26T14:27:15.778Z,40.10
2018-07-26T14:29:44.018Z,40.10
2018-07-26T14:32:12.367Z,40.30
2018-07-26T14:34:40.693Z,40.40
2018-07-26T14:37:08.936Z,40.40
2018-07-26T14:39:37.334Z,40.40
2018-07-26T14:42:05.609Z,40.30
2018-07-26T14:44:34.025Z,40.40
2018-07-26T14:47:02.258Z,40.50
2018-07-26T14:49:32.191Z,40.70
2018-07-26T14:52:03.400Z,40.80
2018-07-26T14:54:34.381Z,40.90
2018-07-26T14:57:05.597Z,40.20
2018-07-26T14:59:36.943Z,40.20
2018-07-26T15:02:06.727Z,40.00
2018-07-26T15:04:37.700Z,39.90
2018-07-26T15:07:08.020Z,40.10
2018-07-26T15:09:38.119Z,39.80
2018-07-26T15:14:40.082Z,39.70
2018-07-26T15:19:36.575Z,39.40
2018-07-26T15:22:05.524Z,39.50
2018-07-26T15:24:34.935Z,39.40
2018-07-26T15:27:03.215Z,39.40
2018-07-26T15:29:31.595Z,39.40
2018-07-26T15:31:59.999Z,39.30
2018-07-26T15:34:28.320Z,39.40
2018-07-26T15:36:56.644Z,39.50
2018-07-26T15:39:24.929Z,39.50
2018-07-26T15:41:53.163Z,39.30
2018-07-26T15:44:21.434Z,39.30
2018-07-26T15:49:19.997Z,39.30
2018-07-26T15:51:48.252Z,39.20
2018-07-26T15:54:16.533Z,39.10
2018-07-26T15:56:44.896Z,38.70
2018-07-26T15:59:13.213Z,38.70
2018-07-26T16:01:41.723Z,38.80
2018-07-26T16:09:08.495Z,38.70
2018-07-26T16:19:01.517Z,38.30
2018-07-26T16:21:29.749Z,38.20
2018-07-26T16:23:57.959Z,38.20
2018-07-26T16:26:26.211Z,38.10
2018-07-26T16:28:54.465Z,38.00
2018-07-26T16:31:22.745Z,37.90
2018-07-26T16:33:51.003Z,37.60
2018-07-26T16:36:19.257Z,37.50
2018-07-26T16:38:47.723Z,37.40
2018-07-26T16:41:16.307Z,37.40
2018-07-26T16:43:44.562Z,37.40
2018-07-26T16:46:12.800Z,37.50
2018-07-26T16:48:41.146Z,37.60
2018-07-26T16:51:09.414Z,37.70
2018-07-26T16:53:37.705Z,37.70
2018-07-26T16:56:06.005Z,37.50
2018-07-26T16:58:34.323Z,37.50
2018-07-26T17:01:02.501Z,37.30
2018-07-26T17:03:30.781Z,37.30
2018-07-26T17:05:59.078Z,37.30
2018-07-26T17:08:27.360Z,37.30
2018-07-26T17:10:55.607Z,37.10
2018-07-26T17:13:23.895Z,36.70
2018-07-26T17:15:52.132Z,36.40
2018-07-26T17:18:20.454Z,36.30
2018-07-26T17:20:48.831Z,36.10
2018-07-26T17:23:17.045Z,36.00
2018-07-26T17:25:45.352Z,36.00
2018-07-26T17:28:13.608Z,35.90
2018-07-26T17:30:41.896Z,35.70
2018-07-26T17:33:10.130Z,35.60
2018-07-26T17:35:38.490Z,35.40
2018-07-26T17:38:06.763Z,35.20
2018-07-26T17:40:35.045Z,35.20
2018-07-26T17:43:03.339Z,35.10
2018-07-26T17:45:32.606Z,34.80
2018-07-26T17:48:01.993Z,34.50
2018-07-26T17:50:30.312Z,34.60
2018-07-26T17:52:58.537Z,34.50
2018-07-26T17:55:26.814Z,34.50
2018-07-26T17:57:55.127Z,34.60
2018-07-26T18:00:23.436Z,34.70
2018-07-26T18:02:51.761Z,34.80
2018-07-26T18:05:20.033Z,34.80
2018-07-26T18:07:48.316Z,34.70
2018-07-26T18:12:45.275Z,34.70
2018-07-26T18:17:41.736Z,34.40
2018-07-26T18:20:10.138Z,34.20
2018-07-26T18:22:38.363Z,34.30
2018-07-26T18:25:06.654Z,34.30
2018-07-26T18:30:03.114Z,34.30
2018-07-26T18:32:31.479Z,34.10
2018-07-26T18:34:59.787Z,34.10
2018-07-26T18:37:28.012Z,34.20
2018-07-26T18:39:56.267Z,34.30
2018-07-26T18:42:24.515Z,34.20
2018-07-26T18:44:52.745Z,34.20
2018-07-26T18:47:21.020Z,34.10
2018-07-26T18:49:49.279Z,34.00
2018-07-26T18:52:17.609Z,33.90
2018-07-26T18:54:46.002Z,33.80
2018-07-26T18:57:14.236Z,33.80
2018-07-26T18:59:42.898Z,33.60
2018-07-26T19:04:39.204Z,33.40
2018-07-26T19:07:07.481Z,33.50
2018-07-26T19:09:37.026Z,33.40
2018-07-26T19:12:05.377Z,33.50
2018-07-26T19:14:33.662Z,33.50
2018-07-26T19:17:01.932Z,33.40
2018-07-26T19:19:30.260Z,33.30
2018-07-26T19:24:26.494Z,33.10
2018-07-26T19:26:55.366Z,32.90
2018-07-26T19:29:23.794Z,32.80
2018-07-26T19:31:52.155Z,32.70
2018-07-26T19:34:20.524Z,32.70
2018-07-26T19:36:48.873Z,32.60
2018-07-26T19:39:17.198Z,32.60
2018-07-26T19:41:45.434Z,32.50
2018-07-26T19:44:13.768Z,32.50
2018-07-26T19:46:41.990Z,32.40
2018-07-26T19:49:10.305Z,32.40
2018-07-26T19:54:06.718Z,31.80
2018-07-26T19:56:34.999Z,31.60
2018-07-26T19:59:03.446Z,31.60
2018-07-26T20:01:31.763Z,31.50
2018-07-26T20:04:00.137Z,31.40
2018-07-26T20:06:28.378Z,31.30
2018-07-26T20:08:56.663Z,31.30
2018-07-26T20:11:24.952Z,31.20
2018-07-26T20:13:53.336Z,31.20
2018-07-26T20:16:22.177Z,31.30
2018-07-26T20:18:50.604Z,31.00
2018-07-26T20:23:47.160Z,31.10
2018-07-26T20:26:15.506Z,31.10
2018-07-26T20:28:43.794Z,31.10
2018-07-26T20:31:12.135Z,30.90
2018-07-26T20:33:40.390Z,30.80
2018-07-26T20:36:08.753Z,30.80
2018-07-26T20:38:36.985Z,30.70
2018-07-26T20:41:05.276Z,30.60
2018-07-26T20:43:33.545Z,30.50
2018-07-26T20:46:01.826Z,30.50
2018-07-26T20:48:30.194Z,30.40
2018-07-26T20:50:58.431Z,30.40
2018-07-26T20:53:27.531Z,30.30
2018-07-26T20:55:55.848Z,30.20
2018-07-26T20:58:24.156Z,30.20
2018-07-26T21:00:52.442Z,30.00
2018-07-26T21:03:20.710Z,30.00
2018-07-26T21:05:49.088Z,29.90
2018-07-26T21:08:17.407Z,29.90
2018-07-26T21:10:45.699Z,29.90
2018-07-26T21:13:13.968Z,29.80
2018-07-26T21:15:42.237Z,29.70
2018-07-26T21:18:10.540Z,29.70
2018-07-26T21:20:38.768Z,29.60
2018-07-26T21:23:07.028Z,29.50
2018-07-26T21:25:35.830Z,29.50
2018-07-26T21:28:04.236Z,29.60
2018-07-26T21:30:32.544Z,29.60
2018-07-26T21:33:00.860Z,29.50
2018-07-26T21:37:57.190Z,29.40
2018-07-26T21:40:25.508Z,29.30
2018-07-26T21:42:53.774Z,29.30
2018-07-26T21:45:22.061Z,29.40
2018-07-26T21:47:50.322Z,29.30
2018-07-26T21:52:46.550Z,29.20
2018-07-26T21:57:42.899Z,29.00
2018-07-26T22:00:11.527Z,29.00
2018-07-26T22:02:39.888Z,28.90
2018-07-26T22:05:08.346Z,28.90
2018-07-26T22:10:06.740Z,28.70
2018-07-26T22:12:35.083Z,28.60
2018-07-26T22:15:03.418Z,28.60
2018-07-26T22:17:31.667Z,28.30
2018-07-26T22:24:55.998Z,28.20
2018-07-26T22:27:24.352Z,28.20
2018-07-26T22:29:52.571Z,28.30
2018-07-26T22:32:20.831Z,28.10
2018-07-26T22:34:49.073Z,27.90
2018-07-26T22:37:17.392Z,27.90
2018-07-26T22:39:45.691Z,27.80
2018-07-26T22:42:13.984Z,27.90
2018-07-26T22:44:42.242Z,27.80
2018-07-26T22:47:10.507Z,27.80
2018-07-26T22:49:38.750Z,27.80
2018-07-26T22:54:34.990Z,27.70
2018-07-26T23:01:59.237Z,27.50
2018-07-26T23:04:27.513Z,27.50
2018-07-26T23:06:55.778Z,27.30
2018-07-26T23:09:24.065Z,27.30
2018-07-26T23:11:52.332Z,27.30
2018-07-26T23:14:20.592Z,27.20
2018-07-26T23:19:16.904Z,27.10
2018-07-26T23:21:45.245Z,27.00
2018-07-26T23:24:13.563Z,27.00
2018-07-26T23:26:41.891Z,26.90
2018-07-26T23:29:10.190Z,26.90
2018-07-26T23:31:38.511Z,26.60
2018-07-26T23:34:06.797Z,26.50
2018-07-26T23:39:03.420Z,26.40
2018-07-26T23:41:31.733Z,26.30
2018-07-26T23:46:28.021Z,26.30
2018-07-26T23:48:56.389Z,26.30
2018-07-26T23:51:24.722Z,26.20
2018-07-26T23:56:21.097Z,26.20
2018-07-26T23:58:50.531Z,26.20
